sensor_id;sensor_type;location;lat;lon;timestamp;P1;durP1;ratioP1;P2;durP2;ratioP2
28587;SDS011;15787;49.662;10.162;2023-02-28T00:00:10;5.45;;;3.20;;
28587;SDS011;15787;49.662;10.162;2023-02-28T00:02:44;4.32;;;2.90;;
28587;SDS011;15787;49.662;10.162;2023-02-28T00:05:19;6.47;;;3.60;;
28587;SDS011;15787;49.662;10.162;2023-02-28T00:07:54;4.75;;;3.20;;
28587;SDS011;15787;49.662;10.162;2023-02-28T00:10:29;4.32;;;2.67;;
28587;SDS011;15787;49.662;10.162;2023-02-28T00:13:04;5.90;;;3.28;;
28587;SDS011;15787;49.662;10.162;2023-02-28T00:15:38;6.03;;;3.03;;
28587;SDS011;15787;49.662;10.162;2023-02-28T00:18:11;6.25;;;3.30;;
28587;SDS011;15787;49.662;10.162;2023-02-28T00:20:44;5.60;;;3.17;;
28587;SDS011;15787;49.662;10.162;2023-02-28T00:23:17;5.18;;;2.80;;
28587;SDS011;15787;49.662;10.162;2023-02-28T00:25:52;5.03;;;2.83;;
28587;SDS011;15787;49.662;10.162;2023-02-28T00:28:25;5.95;;;3.55;;
28587;SDS011;15787;49.662;10.162;2023-02-28T00:30:58;6.78;;;3.17;;
28587;SDS011;15787;49.662;10.162;2023-02-28T00:33:32;8.98;;;3.00;;
28587;SDS011;15787;49.662;10.162;2023-02-28T00:36:06;7.80;;;3.17;;
28587;SDS011;15787;49.662;10.162;2023-02-28T00:38:41;4.95;;;2.88;;
28587;SDS011;15787;49.662;10.162;2023-02-28T00:41:16;4.13;;;2.63;;
28587;SDS011;15787;49.662;10.162;2023-02-28T00:43:48;5.55;;;2.67;;
28587;SDS011;15787;49.662;10.162;2023-02-28T00:46:22;4.57;;;2.90;;
28587;SDS011;15787;49.662;10.162;2023-02-28T00:48:55;5.22;;;2.90;;
28587;SDS011;15787;49.662;10.162;2023-02-28T00:51:29;4.57;;;2.88;;
28587;SDS011;15787;49.662;10.162;2023-02-28T00:54:02;4.47;;;3.00;;
28587;SDS011;15787;49.662;10.162;2023-02-28T00:56:37;4.85;;;3.00;;
28587;SDS011;15787;49.662;10.162;2023-02-28T00:59:10;6.57;;;3.20;;
28587;SDS011;15787;49.662;10.162;2023-02-28T01:01:43;6.03;;;2.78;;
28587;SDS011;15787;49.662;10.162;2023-02-28T01:04:18;4.80;;;3.28;;
28587;SDS011;15787;49.662;10.162;2023-02-28T01:06:51;6.63;;;3.42;;
28587;SDS011;15787;49.662;10.162;2023-02-28T01:09:24;8.93;;;3.30;;
28587;SDS011;15787;49.662;10.162;2023-02-28T01:11:59;5.63;;;3.15;;
28587;SDS011;15787;49.662;10.162;2023-02-28T01:14:31;7.32;;;3.70;;
28587;SDS011;15787;49.662;10.162;2023-02-28T01:17:04;7.30;;;3.40;;
28587;SDS011;15787;49.662;10.162;2023-02-28T01:19:37;5.00;;;3.15;;
28587;SDS011;15787;49.662;10.162;2023-02-28T01:22:10;5.55;;;3.00;;
28587;SDS011;15787;49.662;10.162;2023-02-28T01:24:43;6.63;;;3.50;;
28587;SDS011;15787;49.662;10.162;2023-02-28T01:27:20;6.03;;;3.47;;
28587;SDS011;15787;49.662;10.162;2023-02-28T01:29:52;7.13;;;3.63;;
28587;SDS011;15787;49.662;10.162;2023-02-28T01:32:26;6.00;;;3.08;;
28587;SDS011;15787;49.662;10.162;2023-02-28T01:34:59;6.80;;;3.63;;
28587;SDS011;15787;49.662;10.162;2023-02-28T01:37:32;6.43;;;3.58;;
28587;SDS011;15787;49.662;10.162;2023-02-28T01:40:05;7.90;;;3.35;;
28587;SDS011;15787;49.662;10.162;2023-02-28T01:42:40;5.55;;;3.70;;
28587;SDS011;15787;49.662;10.162;2023-02-28T01:45:18;6.93;;;3.95;;
28587;SDS011;15787;49.662;10.162;2023-02-28T01:47:57;6.05;;;3.20;;
28587;SDS011;15787;49.662;10.162;2023-02-28T01:50:34;6.15;;;3.05;;
28587;SDS011;15787;49.662;10.162;2023-02-28T01:53:13;6.78;;;3.25;;
28587;SDS011;15787;49.662;10.162;2023-02-28T01:55:48;5.78;;;3.40;;
28587;SDS011;15787;49.662;10.162;2023-02-28T01:58:26;7.82;;;3.47;;
28587;SDS011;15787;49.662;10.162;2023-02-28T02:01:00;6.60;;;3.33;;
28587;SDS011;15787;49.662;10.162;2023-02-28T02:03:34;6.30;;;3.85;;
28587;SDS011;15787;49.662;10.162;2023-02-28T02:06:08;6.68;;;3.30;;
28587;SDS011;15787;49.662;10.162;2023-02-28T02:08:41;7.20;;;3.60;;
28587;SDS011;15787;49.662;10.162;2023-02-28T02:11:14;5.97;;;3.28;;
28587;SDS011;15787;49.662;10.162;2023-02-28T02:14:00;6.85;;;3.80;;
28587;SDS011;15787;49.662;10.162;2023-02-28T02:16:58;7.88;;;3.38;;
28587;SDS011;15787;49.662;10.162;2023-02-28T02:19:46;6.05;;;3.40;;
28587;SDS011;15787;49.662;10.162;2023-02-28T02:23:01;6.93;;;3.08;;
28587;SDS011;15787;49.662;10.162;2023-02-28T02:26:02;6.38;;;2.83;;
28587;SDS011;15787;49.662;10.162;2023-02-28T02:28:56;5.95;;;2.72;;
28587;SDS011;15787;49.662;10.162;2023-02-28T02:31:50;6.45;;;3.60;;
28587;SDS011;15787;49.662;10.162;2023-02-28T02:34:43;5.82;;;3.42;;
28587;SDS011;15787;49.662;10.162;2023-02-28T02:37:27;5.70;;;3.17;;
28587;SDS011;15787;49.662;10.162;2023-02-28T02:40:08;6.20;;;3.17;;
28587;SDS011;15787;49.662;10.162;2023-02-28T02:42:47;7.85;;;3.55;;
28587;SDS011;15787;49.662;10.162;2023-02-28T02:45:25;8.57;;;4.20;;
28587;SDS011;15787;49.662;10.162;2023-02-28T02:48:09;6.82;;;3.67;;
28587;SDS011;15787;49.662;10.162;2023-02-28T02:50:48;6.97;;;4.07;;
28587;SDS011;15787;49.662;10.162;2023-02-28T02:53:24;6.40;;;3.60;;
28587;SDS011;15787;49.662;10.162;2023-02-28T02:56:04;6.60;;;3.55;;
28587;SDS011;15787;49.662;10.162;2023-02-28T02:58:40;8.20;;;4.45;;
28587;SDS011;15787;49.662;10.162;2023-02-28T03:01:16;6.22;;;3.63;;
28587;SDS011;15787;49.662;10.162;2023-02-28T03:04:00;4.82;;;3.17;;
28587;SDS011;15787;49.662;10.162;2023-02-28T03:06:37;7.45;;;4.18;;
28587;SDS011;15787;49.662;10.162;2023-02-28T03:09:10;7.32;;;3.85;;
28587;SDS011;15787;49.662;10.162;2023-02-28T03:11:43;8.32;;;3.97;;
28587;SDS011;15787;49.662;10.162;2023-02-28T03:14:20;6.35;;;3.85;;
28587;SDS011;15787;49.662;10.162;2023-02-28T03:20:07;5.35;;;3.30;;
28587;SDS011;15787;49.662;10.162;2023-02-28T03:22:54;8.25;;;3.85;;
28587;SDS011;15787;49.662;10.162;2023-02-28T03:25:34;8.05;;;3.78;;
28587;SDS011;15787;49.662;10.162;2023-02-28T03:28:18;7.30;;;4.60;;
28587;SDS011;15787;49.662;10.162;2023-02-28T03:30:58;7.47;;;4.05;;
28587;SDS011;15787;49.662;10.162;2023-02-28T03:33:38;9.23;;;3.75;;
28587;SDS011;15787;49.662;10.162;2023-02-28T03:36:16;7.47;;;3.75;;
28587;SDS011;15787;49.662;10.162;2023-02-28T03:38:54;7.97;;;4.70;;
28587;SDS011;15787;49.662;10.162;2023-02-28T03:41:35;7.88;;;3.58;;
28587;SDS011;15787;49.662;10.162;2023-02-28T03:44:11;9.75;;;4.13;;
28587;SDS011;15787;49.662;10.162;2023-02-28T03:46:52;11.02;;;5.15;;
28587;SDS011;15787;49.662;10.162;2023-02-28T03:49:30;8.30;;;4.72;;
28587;SDS011;15787;49.662;10.162;2023-02-28T03:52:07;9.07;;;4.25;;
28587;SDS011;15787;49.662;10.162;2023-02-28T03:54:42;8.43;;;4.25;;
28587;SDS011;15787;49.662;10.162;2023-02-28T03:57:20;8.07;;;3.85;;
28587;SDS011;15787;49.662;10.162;2023-02-28T04:00:00;9.20;;;3.72;;
28587;SDS011;15787;49.662;10.162;2023-02-28T04:02:42;9.45;;;4.25;;
28587;SDS011;15787;49.662;10.162;2023-02-28T04:05:16;5.55;;;3.35;;
28587;SDS011;15787;49.662;10.162;2023-02-28T04:07:49;5.35;;;4.15;;
28587;SDS011;15787;49.662;10.162;2023-02-28T04:10:23;6.70;;;3.60;;
28587;SDS011;15787;49.662;10.162;2023-02-28T04:12:56;7.93;;;4.47;;
28587;SDS011;15787;49.662;10.162;2023-02-28T04:15:28;5.50;;;3.42;;
28587;SDS011;15787;49.662;10.162;2023-02-28T04:18:03;11.63;;;4.60;;
28587;SDS011;15787;49.662;10.162;2023-02-28T04:20:36;9.18;;;4.22;;
28587;SDS011;15787;49.662;10.162;2023-02-28T04:23:09;7.82;;;3.70;;
28587;SDS011;15787;49.662;10.162;2023-02-28T04:25:43;8.57;;;3.33;;
28587;SDS011;15787;49.662;10.162;2023-02-28T04:28:16;5.97;;;3.92;;
28587;SDS011;15787;49.662;10.162;2023-02-28T04:30:53;5.80;;;3.70;;
28587;SDS011;15787;49.662;10.162;2023-02-28T04:33:27;7.15;;;4.30;;
28587;SDS011;15787;49.662;10.162;2023-02-28T04:36:01;6.72;;;3.63;;
28587;SDS011;15787;49.662;10.162;2023-02-28T04:38:36;8.77;;;3.88;;
28587;SDS011;15787;49.662;10.162;2023-02-28T04:41:12;7.13;;;3.55;;
28587;SDS011;15787;49.662;10.162;2023-02-28T04:43:45;6.65;;;3.47;;
28587;SDS011;15787;49.662;10.162;2023-02-28T04:46:19;10.23;;;4.07;;
28587;SDS011;15787;49.662;10.162;2023-02-28T04:48:52;9.20;;;3.83;;
28587;SDS011;15787;49.662;10.162;2023-02-28T04:51:25;6.20;;;3.55;;
28587;SDS011;15787;49.662;10.162;2023-02-28T04:53:59;7.80;;;3.90;;
28587;SDS011;15787;49.662;10.162;2023-02-28T04:56:33;10.38;;;4.47;;
28587;SDS011;15787;49.662;10.162;2023-02-28T04:59:06;10.05;;;4.25;;
28587;SDS011;15787;49.662;10.162;2023-02-28T05:01:39;5.60;;;3.55;;
28587;SDS011;15787;49.662;10.162;2023-02-28T05:04:12;9.90;;;5.05;;
28587;SDS011;15787;49.662;10.162;2023-02-28T05:06:46;7.93;;;4.65;;
28587;SDS011;15787;49.662;10.162;2023-02-28T05:09:19;6.60;;;4.00;;
28587;SDS011;15787;49.662;10.162;2023-02-28T05:11:53;36.90;;;16.35;;
28587;SDS011;15787;49.662;10.162;2023-02-28T05:14:26;13.60;;;7.35;;
28587;SDS011;15787;49.662;10.162;2023-02-28T05:16:59;28.38;;;13.52;;
28587;SDS011;15787;49.662;10.162;2023-02-28T05:19:32;47.40;;;22.38;;
28587;SDS011;15787;49.662;10.162;2023-02-28T05:22:11;50.42;;;22.02;;
28587;SDS011;15787;49.662;10.162;2023-02-28T05:24:46;20.80;;;10.65;;
28587;SDS011;15787;49.662;10.162;2023-02-28T05:27:21;15.23;;;7.85;;
28587;SDS011;15787;49.662;10.162;2023-02-28T05:29:54;11.68;;;6.40;;
28587;SDS011;15787;49.662;10.162;2023-02-28T05:32:27;10.07;;;5.20;;
28587;SDS011;15787;49.662;10.162;2023-02-28T05:35:00;8.50;;;5.05;;
28587;SDS011;15787;49.662;10.162;2023-02-28T05:37:33;9.25;;;4.97;;
28587;SDS011;15787;49.662;10.162;2023-02-28T05:40:07;11.95;;;6.55;;
28587;SDS011;15787;49.662;10.162;2023-02-28T05:42:44;10.27;;;6.55;;
28587;SDS011;15787;49.662;10.162;2023-02-28T05:45:17;10.30;;;5.45;;
28587;SDS011;15787;49.662;10.162;2023-02-28T05:47:52;10.73;;;5.10;;
28587;SDS011;15787;49.662;10.162;2023-02-28T05:50:26;9.18;;;5.05;;
28587;SDS011;15787;49.662;10.162;2023-02-28T05:52:58;13.15;;;6.35;;
28587;SDS011;15787;49.662;10.162;2023-02-28T05:55:32;9.00;;;4.13;;
28587;SDS011;15787;49.662;10.162;2023-02-28T05:58:09;8.68;;;4.90;;
28587;SDS011;15787;49.662;10.162;2023-02-28T06:00:42;10.80;;;5.20;;
28587;SDS011;15787;49.662;10.162;2023-02-28T06:03:15;13.07;;;4.90;;
28587;SDS011;15787;49.662;10.162;2023-02-28T06:05:48;12.32;;;5.68;;
28587;SDS011;15787;49.662;10.162;2023-02-28T06:08:23;15.45;;;6.13;;
28587;SDS011;15787;49.662;10.162;2023-02-28T06:10:57;11.05;;;5.72;;
28587;SDS011;15787;49.662;10.162;2023-02-28T06:13:31;15.52;;;6.65;;
28587;SDS011;15787;49.662;10.162;2023-02-28T06:16:04;13.63;;;6.53;;
28587;SDS011;15787;49.662;10.162;2023-02-28T06:18:38;10.32;;;5.28;;
28587;SDS011;15787;49.662;10.162;2023-02-28T06:21:11;9.27;;;5.13;;
28587;SDS011;15787;49.662;10.162;2023-02-28T06:23:45;9.75;;;5.22;;
28587;SDS011;15787;49.662;10.162;2023-02-28T06:26:17;10.80;;;5.10;;
28587;SDS011;15787;49.662;10.162;2023-02-28T06:28:52;13.13;;;5.10;;
28587;SDS011;15787;49.662;10.162;2023-02-28T06:31:26;9.85;;;5.25;;
28587;SDS011;15787;49.662;10.162;2023-02-28T06:34:01;8.77;;;5.20;;
28587;SDS011;15787;49.662;10.162;2023-02-28T06:36:34;10.30;;;5.97;;
28587;SDS011;15787;49.662;10.162;2023-02-28T06:39:07;11.27;;;5.65;;
28587;SDS011;15787;49.662;10.162;2023-02-28T06:41:40;12.77;;;5.68;;
28587;SDS011;15787;49.662;10.162;2023-02-28T06:44:27;8.73;;;5.18;;
28587;SDS011;15787;49.662;10.162;2023-02-28T06:47:06;10.90;;;4.78;;
28587;SDS011;15787;49.662;10.162;2023-02-28T06:49:39;11.70;;;5.55;;
28587;SDS011;15787;49.662;10.162;2023-02-28T06:52:12;11.48;;;5.82;;
28587;SDS011;15787;49.662;10.162;2023-02-28T06:54:47;16.75;;;6.55;;
28587;SDS011;15787;49.662;10.162;2023-02-28T06:57:31;10.38;;;5.85;;
28587;SDS011;15787;49.662;10.162;2023-02-28T07:00:08;12.68;;;6.35;;
28587;SDS011;15787;49.662;10.162;2023-02-28T07:02:42;11.68;;;5.88;;
28587;SDS011;15787;49.662;10.162;2023-02-28T07:05:16;12.32;;;5.63;;
28587;SDS011;15787;49.662;10.162;2023-02-28T07:07:49;16.55;;;5.97;;
28587;SDS011;15787;49.662;10.162;2023-02-28T07:10:24;11.13;;;5.32;;
28587;SDS011;15787;49.662;10.162;2023-02-28T07:12:56;8.02;;;5.15;;
28587;SDS011;15787;49.662;10.162;2023-02-28T07:15:31;12.13;;;5.88;;
28587;SDS011;15787;49.662;10.162;2023-02-28T07:18:04;9.40;;;5.63;;
28587;SDS011;15787;49.662;10.162;2023-02-28T07:20:37;18.25;;;5.93;;
28587;SDS011;15787;49.662;10.162;2023-02-28T07:23:10;11.00;;;5.43;;
28587;SDS011;15787;49.662;10.162;2023-02-28T07:25:43;11.88;;;5.05;;
28587;SDS011;15787;49.662;10.162;2023-02-28T07:28:17;8.68;;;5.43;;
28587;SDS011;15787;49.662;10.162;2023-02-28T07:30:51;8.70;;;4.70;;
28587;SDS011;15787;49.662;10.162;2023-02-28T07:33:24;9.35;;;5.30;;
28587;SDS011;15787;49.662;10.162;2023-02-28T07:36:00;9.85;;;5.65;;
28587;SDS011;15787;49.662;10.162;2023-02-28T07:38:33;7.30;;;4.25;;
28587;SDS011;15787;49.662;10.162;2023-02-28T07:41:07;10.13;;;5.38;;
28587;SDS011;15787;49.662;10.162;2023-02-28T07:43:41;8.30;;;4.63;;
28587;SDS011;15787;49.662;10.162;2023-02-28T07:46:16;8.73;;;5.18;;
28587;SDS011;15787;49.662;10.162;2023-02-28T07:48:51;8.57;;;4.63;;
28587;SDS011;15787;49.662;10.162;2023-02-28T07:51:26;9.88;;;5.05;;
28587;SDS011;15787;49.662;10.162;2023-02-28T07:54:00;7.45;;;4.65;;
28587;SDS011;15787;49.662;10.162;2023-02-28T07:56:34;10.20;;;5.32;;
28587;SDS011;15787;49.662;10.162;2023-02-28T07:59:07;16.13;;;6.40;;
28587;SDS011;15787;49.662;10.162;2023-02-28T08:01:42;9.70;;;5.53;;
28587;SDS011;15787;49.662;10.162;2023-02-28T08:04:16;11.15;;;5.97;;
28587;SDS011;15787;49.662;10.162;2023-02-28T08:06:49;11.18;;;6.00;;
28587;SDS011;15787;49.662;10.162;2023-02-28T08:09:24;12.65;;;5.95;;
28587;SDS011;15787;49.662;10.162;2023-02-28T08:11:57;13.48;;;6.05;;
28587;SDS011;15787;49.662;10.162;2023-02-28T08:14:30;10.48;;;6.05;;
28587;SDS011;15787;49.662;10.162;2023-02-28T08:17:05;10.75;;;5.68;;
28587;SDS011;15787;49.662;10.162;2023-02-28T08:19:39;9.60;;;6.40;;
28587;SDS011;15787;49.662;10.162;2023-02-28T08:22:12;10.57;;;6.03;;
28587;SDS011;15787;49.662;10.162;2023-02-28T08:24:45;13.15;;;6.43;;
28587;SDS011;15787;49.662;10.162;2023-02-28T08:27:19;10.68;;;6.10;;
28587;SDS011;15787;49.662;10.162;2023-02-28T08:29:52;10.85;;;6.18;;
28587;SDS011;15787;49.662;10.162;2023-02-28T08:32:27;12.20;;;6.70;;
28587;SDS011;15787;49.662;10.162;2023-02-28T08:35:01;12.00;;;6.05;;
28587;SDS011;15787;49.662;10.162;2023-02-28T08:37:34;9.45;;;5.90;;
28587;SDS011;15787;49.662;10.162;2023-02-28T08:40:10;10.70;;;5.85;;
28587;SDS011;15787;49.662;10.162;2023-02-28T08:42:49;10.88;;;6.25;;
28587;SDS011;15787;49.662;10.162;2023-02-28T08:45:22;9.68;;;4.88;;
28587;SDS011;15787;49.662;10.162;2023-02-28T08:47:57;11.02;;;6.72;;
28587;SDS011;15787;49.662;10.162;2023-02-28T08:50:29;11.98;;;5.72;;
28587;SDS011;15787;49.662;10.162;2023-02-28T08:53:03;11.75;;;6.47;;
28587;SDS011;15787;49.662;10.162;2023-02-28T08:55:36;12.68;;;6.38;;
28587;SDS011;15787;49.662;10.162;2023-02-28T08:58:08;13.73;;;6.68;;
28587;SDS011;15787;49.662;10.162;2023-02-28T09:00:41;13.52;;;7.10;;
28587;SDS011;15787;49.662;10.162;2023-02-28T09:03:16;10.90;;;6.05;;
28587;SDS011;15787;49.662;10.162;2023-02-28T09:05:52;13.27;;;7.20;;
28587;SDS011;15787;49.662;10.162;2023-02-28T09:08:27;11.52;;;6.30;;
28587;SDS011;15787;49.662;10.162;2023-02-28T09:11:03;11.63;;;6.22;;
28587;SDS011;15787;49.662;10.162;2023-02-28T09:13:37;11.63;;;6.53;;
28587;SDS011;15787;49.662;10.162;2023-02-28T09:16:11;12.30;;;6.57;;
28587;SDS011;15787;49.662;10.162;2023-02-28T09:18:48;12.30;;;6.53;;
28587;SDS011;15787;49.662;10.162;2023-02-28T09:21:21;13.27;;;6.68;;
28587;SDS011;15787;49.662;10.162;2023-02-28T09:23:54;14.32;;;7.43;;
28587;SDS011;15787;49.662;10.162;2023-02-28T09:26:27;13.32;;;7.70;;
28587;SDS011;15787;49.662;10.162;2023-02-28T09:29:13;13.32;;;7.13;;
28587;SDS011;15787;49.662;10.162;2023-02-28T09:31:48;12.60;;;6.07;;
28587;SDS011;15787;49.662;10.162;2023-02-28T09:34:23;13.43;;;7.03;;
28587;SDS011;15787;49.662;10.162;2023-02-28T09:36:56;11.80;;;7.07;;
28587;SDS011;15787;49.662;10.162;2023-02-28T09:39:30;13.32;;;6.72;;
28587;SDS011;15787;49.662;10.162;2023-02-28T09:42:03;13.80;;;7.63;;
28587;SDS011;15787;49.662;10.162;2023-02-28T09:44:42;12.35;;;7.15;;
28587;SDS011;15787;49.662;10.162;2023-02-28T09:47:21;10.57;;;6.82;;
28587;SDS011;15787;49.662;10.162;2023-02-28T09:50:06;11.68;;;6.85;;
28587;SDS011;15787;49.662;10.162;2023-02-28T09:52:49;12.13;;;6.78;;
28587;SDS011;15787;49.662;10.162;2023-02-28T09:55:26;12.68;;;7.25;;
28587;SDS011;15787;49.662;10.162;2023-02-28T09:58:16;13.60;;;7.60;;
28587;SDS011;15787;49.662;10.162;2023-02-28T10:00:56;12.15;;;6.75;;
28587;SDS011;15787;49.662;10.162;2023-02-28T10:03:38;12.05;;;7.35;;
28587;SDS011;15787;49.662;10.162;2023-02-28T10:06:17;13.20;;;7.57;;
28587;SDS011;15787;49.662;10.162;2023-02-28T10:08:55;14.00;;;7.45;;
28587;SDS011;15787;49.662;10.162;2023-02-28T10:11:33;12.57;;;6.63;;
28587;SDS011;15787;49.662;10.162;2023-02-28T10:14:12;12.02;;;7.53;;
28587;SDS011;15787;49.662;10.162;2023-02-28T10:16:49;15.35;;;7.20;;
28587;SDS011;15787;49.662;10.162;2023-02-28T10:19:28;12.90;;;6.78;;
28587;SDS011;15787;49.662;10.162;2023-02-28T10:22:08;9.93;;;6.00;;
28587;SDS011;15787;49.662;10.162;2023-02-28T10:24:48;12.77;;;7.25;;
28587;SDS011;15787;49.662;10.162;2023-02-28T10:27:23;14.70;;;7.15;;
28587;SDS011;15787;49.662;10.162;2023-02-28T10:29:58;10.73;;;6.68;;
28587;SDS011;15787;49.662;10.162;2023-02-28T10:32:36;12.23;;;7.05;;
28587;SDS011;15787;49.662;10.162;2023-02-28T10:35:14;12.73;;;6.93;;
28587;SDS011;15787;49.662;10.162;2023-02-28T10:37:51;12.35;;;7.50;;
28587;SDS011;15787;49.662;10.162;2023-02-28T10:40:32;11.85;;;7.43;;
28587;SDS011;15787;49.662;10.162;2023-02-28T10:43:17;11.93;;;5.97;;
28587;SDS011;15787;49.662;10.162;2023-02-28T10:45:57;12.25;;;6.68;;
28587;SDS011;15787;49.662;10.162;2023-02-28T10:48:34;11.52;;;6.45;;
28587;SDS011;15787;49.662;10.162;2023-02-28T10:51:11;11.23;;;7.05;;
28587;SDS011;15787;49.662;10.162;2023-02-28T10:53:48;12.13;;;6.78;;
28587;SDS011;15787;49.662;10.162;2023-02-28T10:56:32;11.88;;;7.53;;
28587;SDS011;15787;49.662;10.162;2023-02-28T10:59:20;12.07;;;6.57;;
28587;SDS011;15787;49.662;10.162;2023-02-28T11:02:00;11.40;;;7.07;;
28587;SDS011;15787;49.662;10.162;2023-02-28T11:04:34;12.98;;;6.50;;
28587;SDS011;15787;49.662;10.162;2023-02-28T11:07:16;15.38;;;7.68;;
28587;SDS011;15787;49.662;10.162;2023-02-28T11:09:57;11.45;;;6.55;;
28587;SDS011;15787;49.662;10.162;2023-02-28T11:12:32;10.40;;;6.07;;
28587;SDS011;15787;49.662;10.162;2023-02-28T11:15:23;10.88;;;6.35;;
28587;SDS011;15787;49.662;10.162;2023-02-28T11:17:59;10.23;;;6.45;;
28587;SDS011;15787;49.662;10.162;2023-02-28T11:20:35;10.55;;;6.40;;
28587;SDS011;15787;49.662;10.162;2023-02-28T11:23:10;12.50;;;6.70;;
28587;SDS011;15787;49.662;10.162;2023-02-28T11:25:49;15.57;;;7.93;;
28587;SDS011;15787;49.662;10.162;2023-02-28T11:28:26;10.80;;;6.68;;
28587;SDS011;15787;49.662;10.162;2023-02-28T11:31:03;12.18;;;5.78;;
28587;SDS011;15787;49.662;10.162;2023-02-28T11:33:47;14.30;;;6.80;;
28587;SDS011;15787;49.662;10.162;2023-02-28T11:36:24;16.38;;;7.28;;
28587;SDS011;15787;49.662;10.162;2023-02-28T11:39:01;11.43;;;6.90;;
28587;SDS011;15787;49.662;10.162;2023-02-28T11:41:50;14.65;;;8.25;;
28587;SDS011;15787;49.662;10.162;2023-02-28T11:44:50;11.32;;;6.57;;
28587;SDS011;15787;49.662;10.162;2023-02-28T11:50:21;13.50;;;6.60;;
28587;SDS011;15787;49.662;10.162;2023-02-28T11:53:10;11.98;;;6.93;;
28587;SDS011;15787;49.662;10.162;2023-02-28T11:55:53;11.52;;;6.72;;
28587;SDS011;15787;49.662;10.162;2023-02-28T11:58:43;10.18;;;6.75;;
28587;SDS011;15787;49.662;10.162;2023-02-28T12:01:28;11.85;;;6.45;;
28587;SDS011;15787;49.662;10.162;2023-02-28T12:04:23;13.63;;;6.57;;
28587;SDS011;15787;49.662;10.162;2023-02-28T12:07:02;13.55;;;7.75;;
28587;SDS011;15787;49.662;10.162;2023-02-28T12:12:23;10.75;;;6.93;;
28587;SDS011;15787;49.662;10.162;2023-02-28T12:18:24;12.13;;;6.68;;
28587;SDS011;15787;49.662;10.162;2023-02-28T12:21:11;11.57;;;6.60;;
28587;SDS011;15787;49.662;10.162;2023-02-28T12:23:54;12.88;;;7.03;;
28587;SDS011;15787;49.662;10.162;2023-02-28T12:26:36;12.60;;;6.88;;
28587;SDS011;15787;49.662;10.162;2023-02-28T12:29:14;10.13;;;6.45;;
28587;SDS011;15787;49.662;10.162;2023-02-28T12:31:51;10.38;;;6.80;;
28587;SDS011;15787;49.662;10.162;2023-02-28T12:34:31;11.07;;;6.60;;
28587;SDS011;15787;49.662;10.162;2023-02-28T12:37:10;10.75;;;6.28;;
28587;SDS011;15787;49.662;10.162;2023-02-28T12:39:48;11.07;;;7.25;;
28587;SDS011;15787;49.662;10.162;2023-02-28T12:42:31;12.07;;;6.65;;
28587;SDS011;15787;49.662;10.162;2023-02-28T12:45:10;10.32;;;6.82;;
28587;SDS011;15787;49.662;10.162;2023-02-28T12:50:26;13.63;;;7.15;;
28587;SDS011;15787;49.662;10.162;2023-02-28T12:53:03;12.07;;;6.97;;
28587;SDS011;15787;49.662;10.162;2023-02-28T12:55:42;10.75;;;7.07;;
28587;SDS011;15787;49.662;10.162;2023-02-28T12:58:23;10.02;;;6.90;;
28587;SDS011;15787;49.662;10.162;2023-02-28T13:01:11;11.07;;;6.93;;
28587;SDS011;15787;49.662;10.162;2023-02-28T13:10:39;11.05;;;6.95;;
28587;SDS011;15787;49.662;10.162;2023-02-28T13:13:17;12.23;;;6.35;;
28587;SDS011;15787;49.662;10.162;2023-02-28T13:15:59;10.27;;;6.90;;
28587;SDS011;15787;49.662;10.162;2023-02-28T13:18:35;9.43;;;6.03;;
28587;SDS011;15787;49.662;10.162;2023-02-28T13:21:22;9.82;;;6.60;;
28587;SDS011;15787;49.662;10.162;2023-02-28T13:24:01;11.75;;;6.25;;
28587;SDS011;15787;49.662;10.162;2023-02-28T13:29:56;13.07;;;7.60;;
28587;SDS011;15787;49.662;10.162;2023-02-28T13:32:35;11.57;;;7.05;;
28587;SDS011;15787;49.662;10.162;2023-02-28T13:35:12;9.80;;;6.30;;
28587;SDS011;15787;49.662;10.162;2023-02-28T13:38:17;12.20;;;7.00;;
28587;SDS011;15787;49.662;10.162;2023-02-28T13:40:58;11.27;;;7.03;;
28587;SDS011;15787;49.662;10.162;2023-02-28T13:44:11;12.35;;;6.80;;
28587;SDS011;15787;49.662;10.162;2023-02-28T13:52:49;11.13;;;6.80;;
28587;SDS011;15787;49.662;10.162;2023-02-28T13:55:35;11.57;;;6.97;;
28587;SDS011;15787;49.662;10.162;2023-02-28T13:58:19;9.82;;;6.65;;
28587;SDS011;15787;49.662;10.162;2023-02-28T14:01:15;11.30;;;6.70;;
28587;SDS011;15787;49.662;10.162;2023-02-28T14:04:02;11.52;;;6.85;;
28587;SDS011;15787;49.662;10.162;2023-02-28T14:06:48;12.50;;;6.68;;
28587;SDS011;15787;49.662;10.162;2023-02-28T14:09:24;9.70;;;6.30;;
28587;SDS011;15787;49.662;10.162;2023-02-28T14:18:21;10.98;;;7.03;;
28587;SDS011;15787;49.662;10.162;2023-02-28T14:21:11;12.15;;;6.78;;
28587;SDS011;15787;49.662;10.162;2023-02-28T14:27:21;10.98;;;6.72;;
28587;SDS011;15787;49.662;10.162;2023-02-28T14:33:31;9.63;;;6.55;;
28587;SDS011;15787;49.662;10.162;2023-02-28T14:36:17;12.88;;;6.90;;
28587;SDS011;15787;49.662;10.162;2023-02-28T14:38:55;15.65;;;8.23;;
28587;SDS011;15787;49.662;10.162;2023-02-28T14:41:30;11.48;;;6.32;;
28587;SDS011;15787;49.662;10.162;2023-02-28T14:44:13;12.23;;;6.82;;
28587;SDS011;15787;49.662;10.162;2023-02-28T14:46:49;11.73;;;7.45;;
28587;SDS011;15787;49.662;10.162;2023-02-28T14:49:27;14.60;;;8.95;;
28587;SDS011;15787;49.662;10.162;2023-02-28T14:52:03;11.65;;;6.38;;
28587;SDS011;15787;49.662;10.162;2023-02-28T14:54:41;10.32;;;6.75;;
28587;SDS011;15787;49.662;10.162;2023-02-28T14:57:21;9.32;;;5.80;;
28587;SDS011;15787;49.662;10.162;2023-02-28T15:00:00;10.45;;;6.88;;
28587;SDS011;15787;49.662;10.162;2023-02-28T15:02:35;12.18;;;6.78;;
28587;SDS011;15787;49.662;10.162;2023-02-28T15:05:16;10.98;;;6.40;;
28587;SDS011;15787;49.662;10.162;2023-02-28T15:08:03;10.70;;;6.70;;
28587;SDS011;15787;49.662;10.162;2023-02-28T15:10:38;15.80;;;7.18;;
28587;SDS011;15787;49.662;10.162;2023-02-28T15:13:13;11.02;;;6.35;;
28587;SDS011;15787;49.662;10.162;2023-02-28T15:15:48;10.52;;;6.43;;
28587;SDS011;15787;49.662;10.162;2023-02-28T15:18:38;11.82;;;6.78;;
28587;SDS011;15787;49.662;10.162;2023-02-28T15:21:20;9.93;;;5.78;;
28587;SDS011;15787;49.662;10.162;2023-02-28T15:23:58;10.52;;;6.20;;
28587;SDS011;15787;49.662;10.162;2023-02-28T15:26:37;12.20;;;6.68;;
28587;SDS011;15787;49.662;10.162;2023-02-28T15:29:13;9.80;;;6.13;;
28587;SDS011;15787;49.662;10.162;2023-02-28T15:31:55;11.65;;;6.32;;
28587;SDS011;15787;49.662;10.162;2023-02-28T15:34:33;13.38;;;7.13;;
28587;SDS011;15787;49.662;10.162;2023-02-28T15:37:39;14.35;;;6.43;;
28587;SDS011;15787;49.662;10.162;2023-02-28T15:40:23;12.00;;;6.20;;
28587;SDS011;15787;49.662;10.162;2023-02-28T15:43:03;11.65;;;6.82;;
28587;SDS011;15787;49.662;10.162;2023-02-28T15:45:39;12.68;;;6.90;;
28587;SDS011;15787;49.662;10.162;2023-02-28T15:48:18;11.70;;;6.75;;
28587;SDS011;15787;49.662;10.162;2023-02-28T15:50:55;10.38;;;6.68;;
28587;SDS011;15787;49.662;10.162;2023-02-28T15:53:32;11.30;;;6.13;;
28587;SDS011;15787;49.662;10.162;2023-02-28T15:56:14;12.07;;;6.22;;
28587;SDS011;15787;49.662;10.162;2023-02-28T15:58:55;10.52;;;6.03;;
28587;SDS011;15787;49.662;10.162;2023-02-28T16:01:29;14.35;;;6.95;;
28587;SDS011;15787;49.662;10.162;2023-02-28T16:04:12;12.43;;;6.50;;
28587;SDS011;15787;49.662;10.162;2023-02-28T16:06:54;11.77;;;7.30;;
28587;SDS011;15787;49.662;10.162;2023-02-28T16:09:35;11.27;;;6.38;;